Portada
METAR-TAF:

METAR-TAF

Aeropuertos :

Irkutsk, Rusia

Aeropuerto Internacional de Irkutsk

latitud: 52-16N, longitud: 104-19E, altitud: 513 m

Observación

El informe se hizo hace 24 minutos, a las 01:00 UTC
Viento 4 kt del sur, variando entre este-noreste y sur-suroeste
Temperatura 9°C
Humedad 43%
Presión 1022 hPa
Visibilidad 10 km o más
sin nubes por debajo de 1500 m y sin presencia de cumulonimbus.

METAR: UIII 270100Z 17002MPS 060V200 CAVOK 09/M03 Q1022 R12/60D NOSIG RMK QFE724/0966

Hora: 09:24 (01:24 UTC)

Pronóstico

El informe se hizo hace 2 horas y 24 minutos, a las 23:00 UTC
Pronóstico válido del 27 a las 00 UTC al 27 a las 24 UTC
Viento 2 kt con dirección variable
Visibilidad 10 km o más
sin nubes por debajo de 1500 m y sin presencia de cumulonimbus.
Evolucionando progresivamente
del 27 a las 03 UTC al 27 a las 05 UTC
Viento 12 kt del sur

TAF: UIII 262300Z 2700/2724 VRB01MPS CAVOK BECMG 2703/2705 18006MPS

Observaciones y pronósticos meteorológicos de más de 4000 aeropuertos (mensajes METAR y TAF).

Los puntos amarillos y rojos representan las estaciones disponibles.

Ponga el ratón en el punto deseado para ver el nombre de la estación.

Haga clic para ver las observaciones y los pronósticos meteorológicos.

Para cambiar el mapa : haga clic en los botones verdes con una cruz de color negro para hacer un zoom, en el botón verde con un guión para alejar o en las flechas verdes para mapas adyacentes.


METAR-TAF: